Home > Products > Valid Products > TAF

000
FTUS42 KTAE 232322
TAFVLD
TAF
KVLD 232322Z 2400/2424 10009KT P6SM FEW050
     FM241300 10010KT P6SM BKN035=



000
FTUS42 KTAE 232322
TAFDHN
TAF
KDHN 232322Z 2400/2424 08008KT P6SM SKC
     FM241500 11011KT P6SM FEW050=



000
FTUS42 KTAE 232322
TAFABY
TAF
KABY 232322Z 2400/2424 08008KT P6SM SKC
     FM241500 10011KT P6SM BKN035=



000
FTUS42 KTAE 232322
TAFTLH
TAF
KTLH 232322Z 2400/2424 09007KT P6SM FEW250
     FM241700 12007KT P6SM BKN035=



000
FTUS42 KTAE 232322
TAFABY
TAF
KABY 232322Z 2400/2424 08008KT P6SM SKC
     FM241500 10011KT P6SM BKN035=



000
FTUS42 KTAE 232322
TAFVLD
TAF
KVLD 232322Z 2400/2424 10009KT P6SM FEW050
     FM241300 10010KT P6SM BKN035=



000
FTUS42 KTAE 232322
TAFDHN
TAF
KDHN 232322Z 2400/2424 08008KT P6SM SKC
     FM241500 11011KT P6SM FEW050=



000
FTUS42 KTAE 232322
TAFTLH
TAF
KTLH 232322Z 2400/2424 09007KT P6SM FEW250
     FM241700 12007KT P6SM BKN035=



000
FTUS42 KTAE 231720
TAFABY
TAF
KABY 231720Z 2318/2418 10010G15KT P6SM SKC
     FM240000 09008KT P6SM SCT020=



000
FTUS42 KTAE 231720
TAFTLH
TAF
KTLH 231720Z 2318/2418 10010G15KT P6SM SKC
     FM240000 10008KT P6SM SCT020=



000
FTUS42 KTAE 231720
TAFVLD
TAF
KVLD 231720Z 2318/2418 09007KT P6SM SCT030=



000
FTUS42 KTAE 231720
TAFDHN
TAF
KDHN 231720Z 2318/2418 10008KT P6SM SKC=



000
FTUS42 KTAE 231120
TAFVLD
TAF
KVLD 231120Z 2312/2412 07006KT P6SM SCT250
     FM231400 08011KT P6SM FEW045 SCT150=



000
FTUS42 KTAE 231120
TAFTLH
TAF
KTLH 231120Z 2312/2412 07005KT P6SM SCT250
     FM231500 09010KT P6SM FEW050 SCT250=



000
FTUS42 KTAE 231120
TAFDHN
TAF
KDHN 231120Z 2312/2412 09005KT P6SM SCT150
     FM231300 08010KT P6SM FEW025 SCT250=



000
FTUS42 KTAE 231120
TAFTLH
TAF
KTLH 231120Z 2312/2412 07005KT P6SM SCT250
     FM231500 09010KT P6SM FEW050 SCT250=



000
FTUS42 KTAE 231120
TAFVLD
TAF
KVLD 231120Z 2312/2412 07006KT P6SM SCT250
     FM231400 08011KT P6SM FEW045 SCT150=



000
FTUS42 KTAE 231120
TAFDHN
TAF
KDHN 231120Z 2312/2412 09005KT P6SM SCT150
     FM231300 08010KT P6SM FEW025 SCT250=



000
FTUS42 KTAE 231120
TAFABY
TAF
KABY 231120Z 2312/2412 07005KT P6SM SCT250
     FM231300 08010KT P6SM FEW030 SCT150=



000
FTUS42 KTAE 231120
TAFABY
TAF
KABY 231120Z 2312/2412 07005KT P6SM SCT250
     FM231300 08010KT P6SM FEW030 SCT150=



000
FTUS42 KTAE 230520
TAFVLD
TAF
KVLD 230520Z 2306/2406 11006KT P6SM SCT250
     FM231400 08011KT P6SM FEW045 SCT150=



000
FTUS42 KTAE 230520
TAFDHN
TAF
KDHN 230520Z 2306/2406 03005KT P6SM SCT150
     FM231300 08010KT P6SM FEW025 SCT250=



000
FTUS42 KTAE 230520
TAFTLH
TAF
KTLH 230520Z 2306/2406 01005KT P6SM SCT250
     FM231500 09010KT P6SM FEW050 SCT250=



000
FTUS42 KTAE 230520
TAFABY
TAF
KABY 230520Z 2306/2406 03005KT P6SM SCT250
     FM231300 08010KT P6SM FEW030 SCT150=



000
FTUS42 KTAE 222325
TAFDHN
TAF
KDHN 222325Z 2300/2324 01006KT P6SM SCT250
     FM230500 06005KT P6SM SCT150
     FM231300 08010KT P6SM FEW025 SCT250=



000
FTUS42 KTAE 222325
TAFVLD
TAF
KVLD 222325Z 2300/2324 04003KT P6SM SCT250
     FM231400 08011KT P6SM FEW045 SCT150=



000
FTUS42 KTAE 222325
TAFTLH
TAF
KTLH 222325Z 2300/2324 01005KT P6SM SCT250
     FM231500 08010KT P6SM FEW050 SCT250=



000
FTUS42 KTAE 222325
TAFVLD
TAF
KVLD 222325Z 2300/2324 04003KT P6SM SCT250
     FM231400 08011KT P6SM FEW045 SCT150=



000
FTUS42 KTAE 222325
TAFABY
TAF
KABY 222325Z 2300/2324 01005KT P6SM SCT250
     FM231300 08010KT P6SM FEW030 SCT150=



000
FTUS42 KTAE 222325
TAFDHN
TAF
KDHN 222325Z 2300/2324 01006KT P6SM SCT250
     FM230500 06005KT P6SM SCT150
     FM231300 08010KT P6SM FEW025 SCT250=



000
FTUS42 KTAE 222325
TAFTLH
TAF
KTLH 222325Z 2300/2324 01005KT P6SM SCT250
     FM231500 08010KT P6SM FEW050 SCT250=



000
FTUS42 KTAE 222325
TAFABY
TAF
KABY 222325Z 2300/2324 01005KT P6SM SCT250
     FM231300 08010KT P6SM FEW030 SCT150=



000
FTUS42 KTAE 221720
TAFABY
TAF
KABY 221720Z 2218/2318 36005KT P6SM SCT250
     FM231200 08006KT P6SM FEW030 SCT150=



000
FTUS42 KTAE 221720
TAFDHN
TAF
KDHN 221720Z 2218/2318 03009KT P6SM SCT250
     FM230500 05003KT P6SM SCT150
     FM231300 08006KT P6SM FEW025 SCT250
     FM231700 10009KT P6SM FEW040 SCT250=



000
FTUS42 KTAE 221720
TAFVLD
TAF
KVLD 221720Z 2218/2318 01004KT P6SM SCT250
     FM230700 06004KT P6SM FEW030
     FM231600 07007KT P6SM FEW045 SCT150=



000
FTUS42 KTAE 221720
TAFTLH
TAF
KTLH 221720Z 2218/2318 01008KT P6SM SCT250
     FM230500 06004KT P6SM SCT020 SCT250
     FM231500 08008KT P6SM FEW050 SCT250=



000
FTUS42 KTAE 221720
TAFTLH
TAF
KTLH 221720Z 2218/2318 01008KT P6SM SCT250
     FM230500 06004KT P6SM SCT020 SCT250
     FM231500 08008KT P6SM FEW050 SCT250=



000
FTUS42 KTAE 221720
TAFDHN
TAF
KDHN 221720Z 2218/2318 03009KT P6SM SCT250
     FM230500 05003KT P6SM SCT150
     FM231300 08006KT P6SM FEW025 SCT250
     FM231700 10009KT P6SM FEW040 SCT250=



000
FTUS42 KTAE 221720
TAFVLD
TAF
KVLD 221720Z 2218/2318 01004KT P6SM SCT250
     FM230700 06004KT P6SM FEW030
     FM231600 07007KT P6SM FEW045 SCT150=



000
FTUS42 KTAE 221720
TAFABY
TAF
KABY 221720Z 2218/2318 36005KT P6SM SCT250
     FM231200 08006KT P6SM FEW030 SCT150=



000
FTUS42 KTAE 221120
TAFDHN
TAF
KDHN 221120Z 2212/2312 36006KT P6SM SCT150
     FM230100 05004KT P6SM SKC=



000
FTUS42 KTAE 221120
TAFDHN
TAF
KDHN 221120Z 2212/2312 36006KT P6SM SCT150
     FM230100 05004KT P6SM SKC=



000
FTUS42 KTAE 221120
TAFTLH
TAF
KTLH 221120Z 2212/2312 36006KT P6SM SCT150
     FM230100 05005KT P6SM SKC=



000
FTUS42 KTAE 221120
TAFABY
TAF
KABY 221120Z 2212/2312 34008KT P6SM SCT250
     FM221400 02007KT P6SM SCT200
     FM230100 06004KT P6SM SKC=



000
FTUS42 KTAE 221120
TAFVLD
TAF
KVLD 221120Z 2212/2312 VRB03KT P6SM SCT250
     FM221400 02005KT P6SM SCT150
     FM230100 VRB03KT P6SM SKC=



000
FTUS42 KTAE 221120
TAFVLD
TAF
KVLD 221120Z 2212/2312 VRB03KT P6SM SCT250
     FM221400 02005KT P6SM SCT150
     FM230100 VRB03KT P6SM SKC=



000
FTUS42 KTAE 221120
TAFABY
TAF
KABY 221120Z 2212/2312 34008KT P6SM SCT250
     FM221400 02007KT P6SM SCT200
     FM230100 06004KT P6SM SKC=



000
FTUS42 KTAE 221120
TAFTLH
TAF
KTLH 221120Z 2212/2312 36006KT P6SM SCT150
     FM230100 05005KT P6SM SKC=



000
FTUS42 KTAE 220521
TAFTLH
TAF
KTLH 220521Z 2206/2306 35005KT P6SM SCT060 BKN250
     FM221400 36006KT P6SM SCT150
     FM230100 05005KT P6SM SKC=



000
FTUS42 KTAE 220521
TAFDHN
TAF
KDHN 220521Z 2206/2306 35008KT P6SM FEW015 SCT250
     FM221400 36006KT P6SM SCT150
     FM230100 05004KT P6SM SKC=



000
FTUS42 KTAE 220521
TAFABY
TAF
KABY 220521Z 2206/2306 34006KT P6SM SCT250
     FM221400 02007KT P6SM SCT200
     FM230100 06004KT P6SM SKC=



000
FTUS42 KTAE 220521
TAFVLD
TAF
KVLD 220521Z 2206/2306 VRB03KT P6SM SCT250
     FM221400 02005KT P6SM SCT150
     FM230100 VRB03KT P6SM SKC=



000
FTUS42 KTAE 220521
TAFABY
TAF
KABY 220521Z 2206/2306 34006KT P6SM SCT250
     FM221400 02007KT P6SM SCT200
     FM230100 06004KT P6SM SKC=



000
FTUS42 KTAE 220521
TAFVLD
TAF
KVLD 220521Z 2206/2306 VRB03KT P6SM SCT250
     FM221400 02005KT P6SM SCT150
     FM230100 VRB03KT P6SM SKC=



000
FTUS42 KTAE 220521
TAFDHN
TAF
KDHN 220521Z 2206/2306 35008KT P6SM FEW015 SCT250
     FM221400 36006KT P6SM SCT150
     FM230100 05004KT P6SM SKC=



000
FTUS42 KTAE 220521
TAFTLH
TAF
KTLH 220521Z 2206/2306 35005KT P6SM SCT060 BKN250
     FM221400 36006KT P6SM SCT150
     FM230100 05005KT P6SM SKC=



000
FTUS42 KTAE 212332
TAFVLD
TAF
KVLD 212332Z 2200/2224 VRB05KT P6SM SKC
     FM220700 32004KT P6SM SKC
     FM221200 02006KT P6SM SKC=



000
FTUS42 KTAE 212332
TAFABY
TAF
KABY 212332Z 2200/2224 33008KT P6SM SCT250
     FM221500 03007KT P6SM SCT150=



000
FTUS42 KTAE 212332
TAFTLH
TAF
KTLH 212332Z 2200/2224 34006KT P6SM SCT250
     FM221200 02007KT P6SM SKC=



000
FTUS42 KTAE 212332
TAFDHN
TAF
KDHN 212332Z 2200/2224 34007KT P6SM SCT250
     FM221200 02008KT P6SM SCT250=



000
FTUS42 KTAE 212332
TAFVLD
TAF
KVLD 212332Z 2200/2224 VRB05KT P6SM SKC
     FM220700 32004KT P6SM SKC
     FM221200 02006KT P6SM SKC=



000
FTUS42 KTAE 212332
TAFABY
TAF
KABY 212332Z 2200/2224 33008KT P6SM SCT250
     FM221500 03007KT P6SM SCT150=



000
FTUS42 KTAE 212332
TAFTLH
TAF
KTLH 212332Z 2200/2224 34006KT P6SM SCT250
     FM221200 02007KT P6SM SKC=



000
FTUS42 KTAE 212332
TAFDHN
TAF
KDHN 212332Z 2200/2224 34007KT P6SM SCT250
     FM221200 02008KT P6SM SCT250=



000
FTUS42 KTAE 211732
TAFABY
TAF
KABY 211732Z 2118/2218 30010G15KT P6SM FEW050
     FM220100 29003KT P6SM SCT200
     FM221400 02005KT P6SM FEW200=



000
FTUS42 KTAE 211732
TAFDHN
TAF
KDHN 211732Z 2118/2218 30009KT P6SM FEW040
     FM220100 34005KT P6SM SCT200=



000
FTUS42 KTAE 211732
TAFTLH
TAF
KTLH 211732Z 2118/2218 31010KT P6SM SCT050
     FM220100 30004KT P6SM SCT200
     FM221400 02007KT P6SM FEW200=



000
FTUS42 KTAE 211732
TAFVLD
TAF
KVLD 211732Z 2118/2218 30008KT P6SM FEW050
     FM220100 31005KT P6SM SCT200
     FM221400 03005KT P6SM FEW200=



000
FTUS42 KTAE 211120
TAFABY
TAF
KABY 211120Z 2112/2212 27003KT P6SM BKN250
     FM211500 30010G15KT P6SM FEW050
     FM220100 29005KT P6SM FEW100=



000
FTUS42 KTAE 211120
TAFVLD
TAF
KVLD 211120Z 2112/2212 00000KT P6SM SCT250
     FM211500 31010G15KT P6SM SCT050
     FM220100 36003KT P6SM FEW100=



000
FTUS42 KTAE 211120
TAFTLH
TAF
KTLH 211120Z 2112/2212 31004KT P6SM BKN250
     FM211500 31010G15KT P6SM SCT050
     FM220100 31004KT P6SM SCT030 SCT250=



000
FTUS42 KTAE 211120
TAFDHN
TAF
KDHN 211120Z 2112/2212 27004KT P6SM BKN250
     FM211500 32015KT P6SM FEW050
     FM220100 34005KT P6SM SCT100=



000
FTUS42 KTAE 211120
TAFTLH
TAF
KTLH 211120Z 2112/2212 31004KT P6SM BKN250
     FM211500 31010G15KT P6SM SCT050
     FM220100 31004KT P6SM SCT030 SCT250=



000
FTUS42 KTAE 211120
TAFDHN
TAF
KDHN 211120Z 2112/2212 27004KT P6SM BKN250
     FM211500 32015KT P6SM FEW050
     FM220100 34005KT P6SM SCT100=



000
FTUS42 KTAE 211120
TAFABY
TAF
KABY 211120Z 2112/2212 27003KT P6SM BKN250
     FM211500 30010G15KT P6SM FEW050
     FM220100 29005KT P6SM FEW100=



000
FTUS42 KTAE 211120
TAFVLD
TAF
KVLD 211120Z 2112/2212 00000KT P6SM SCT250
     FM211500 31010G15KT P6SM SCT050
     FM220100 36003KT P6SM FEW100=



000
FTUS42 KTAE 210520
TAFTLH
TAF
KTLH 210520Z 2106/2206 31004KT P6SM BKN250
     FM211500 31010G15KT P6SM SCT050
     FM220100 31004KT P6SM SCT030 SCT250=



000
FTUS42 KTAE 210520
TAFVLD
TAF
KVLD 210520Z 2106/2206 00000KT P6SM SCT250
     FM211500 31010G15KT P6SM SCT050
     FM220100 36003KT P6SM FEW100=



000
FTUS42 KTAE 210520
TAFDHN
TAF
KDHN 210520Z 2106/2206 27004KT P6SM BKN250
     FM211500 32015KT P6SM FEW050
     FM220100 34005KT P6SM SCT100=



000
FTUS42 KTAE 210520
TAFVLD
TAF
KVLD 210520Z 2106/2206 00000KT P6SM SCT250
     FM211500 31010G15KT P6SM SCT050
     FM220100 36003KT P6SM FEW100=



000
FTUS42 KTAE 210520
TAFDHN
TAF
KDHN 210520Z 2106/2206 27004KT P6SM BKN250
     FM211500 32015KT P6SM FEW050
     FM220100 34005KT P6SM SCT100=



000
FTUS42 KTAE 210520
TAFABY
TAF
KABY 210520Z 2106/2206 27003KT P6SM BKN250
     FM211500 30010G15KT P6SM FEW050
     FM220100 29005KT P6SM FEW100=



000
FTUS42 KTAE 210520
TAFTLH
TAF
KTLH 210520Z 2106/2206 31004KT P6SM BKN250
     FM211500 31010G15KT P6SM SCT050
     FM220100 31004KT P6SM SCT030 SCT250=



000
FTUS42 KTAE 210520
TAFABY
TAF
KABY 210520Z 2106/2206 27003KT P6SM BKN250
     FM211500 30010G15KT P6SM FEW050
     FM220100 29005KT P6SM FEW100=



    US Dept of Commerce
    National Oceanic and Atmospheric Administration
    National Weather Service
    1325 East West Highway
    Silver Spring, MD 20910
    Page Author: NWS Internet Services Team
Disclaimer
Information Quality
Credits
Glossary
Privacy Policy
Freedom of Information Act (FOIA)
About Us
Career Opportunities